createdAt,value
2018-06-30T00:00:07.426Z,69.56
2018-06-30T00:01:07.377Z,69.17
2018-06-30T00:02:07.336Z,69.56
2018-06-30T00:03:07.322Z,69.52
2018-06-30T00:04:07.248Z,69.13
2018-06-30T00:05:07.244Z,69.33
2018-06-30T00:06:07.161Z,69.13
2018-06-30T00:07:07.115Z,69.71
2018-06-30T00:08:07.067Z,69.52
2018-06-30T00:09:07.026Z,69.52
2018-06-30T00:10:07.015Z,69.81
2018-06-30T00:11:06.980Z,69.71
2018-06-30T00:12:06.900Z,69.62
2018-06-30T00:13:06.852Z,69.62
2018-06-30T00:14:06.807Z,70.29
2018-06-30T00:15:06.762Z,70.09
2018-06-30T00:16:06.742Z,70.00
2018-06-30T00:17:06.674Z,70.00
2018-06-30T00:18:06.638Z,70.48
2018-06-30T00:19:06.626Z,70.19
2018-06-30T00:20:06.545Z,70.48
2018-06-30T00:21:06.498Z,70.09
2018-06-30T00:22:06.451Z,70.09
2018-06-30T00:23:06.408Z,70.76
2018-06-30T00:24:06.399Z,70.09
2018-06-30T00:25:06.320Z,70.29
2018-06-30T00:26:06.274Z,70.29
2018-06-30T00:27:06.235Z,70.86
2018-06-30T00:28:06.222Z,70.38
2018-06-30T00:29:06.143Z,69.42
2018-06-30T00:30:06.099Z,69.62
2018-06-30T00:31:06.055Z,70.29
2018-06-30T00:32:06.017Z,70.57
2018-06-30T00:33:06.012Z,70.76
2018-06-30T00:34:05.931Z,70.48
2018-06-30T00:35:05.877Z,71.31
2018-06-30T00:36:05.836Z,71.98
2018-06-30T00:37:05.790Z,71.31
2018-06-30T00:38:05.800Z,72.45
2018-06-30T00:39:05.702Z,72.17
2018-06-30T00:40:05.658Z,71.69
2018-06-30T00:41:05.615Z,71.50
2018-06-30T00:42:05.578Z,71.78
2018-06-30T00:43:05.553Z,71.59
2018-06-30T00:44:05.485Z,72.17
2018-06-30T00:45:05.435Z,72.36
2018-06-30T00:46:05.390Z,71.31
2018-06-30T00:47:05.379Z,71.88
2018-06-30T00:48:05.306Z,73.03
2018-06-30T00:49:05.301Z,72.74
2018-06-30T00:50:05.247Z,72.64
2018-06-30T00:51:05.168Z,72.74
2018-06-30T00:52:05.127Z,72.17
2018-06-30T00:53:05.085Z,72.27
2018-06-30T00:54:05.077Z,72.07
2018-06-30T00:55:04.989Z,72.27
2018-06-30T00:56:04.945Z,72.36
2018-06-30T00:57:04.901Z,72.07
2018-06-30T00:58:04.860Z,72.07
2018-06-30T00:59:04.849Z,72.17
2018-06-30T01:00:04.769Z,71.59
2018-06-30T01:01:04.723Z,71.98
2018-06-30T01:02:04.681Z,71.88
2018-06-30T01:03:04.676Z,71.40
2018-06-30T01:04:04.595Z,72.07
2018-06-30T01:05:04.570Z,72.17
2018-06-30T01:06:04.500Z,72.27
2018-06-30T01:07:04.455Z,72.84
2018-06-30T01:08:04.439Z,73.76
2018-06-30T01:09:04.367Z,73.47
2018-06-30T01:10:04.321Z,73.09
2018-06-30T01:11:04.317Z,73.47
2018-06-30T01:12:04.233Z,73.76
2018-06-30T01:13:04.187Z,73.09
2018-06-30T01:14:04.147Z,73.38
2018-06-30T01:15:04.099Z,74.43
2018-06-30T01:16:04.096Z,74.62
2018-06-30T01:17:04.016Z,74.52
2018-06-30T01:18:03.975Z,74.52
2018-06-30T01:19:03.918Z,74.43
2018-06-30T01:20:03.873Z,74.15
2018-06-30T01:21:03.860Z,73.76
2018-06-30T01:22:03.787Z,73.76
2018-06-30T01:23:03.771Z,74.05
2018-06-30T01:24:03.697Z,73.57
2018-06-30T01:25:03.654Z,74.05
2018-06-30T01:26:03.609Z,73.66
2018-06-30T01:27:03.592Z,73.76
2018-06-30T01:28:03.514Z,73.76
2018-06-30T01:29:03.470Z,73.76
2018-06-30T01:30:03.424Z,74.43
2018-06-30T01:31:03.411Z,74.72
2018-06-30T01:32:03.334Z,74.05
2018-06-30T01:33:03.289Z,73.76
2018-06-30T01:34:03.244Z,74.24
2018-06-30T01:35:03.200Z,74.43
2018-06-30T01:36:03.188Z,73.47
2018-06-30T01:37:03.112Z,74.91
2018-06-30T01:38:03.065Z,74.05
2018-06-30T01:39:03.020Z,74.43
2018-06-30T01:40:02.975Z,75.01
2018-06-30T01:41:02.968Z,74.72
2018-06-30T01:42:02.887Z,74.33
2018-06-30T01:43:02.839Z,74.05
2018-06-30T01:44:02.845Z,74.91
2018-06-30T01:45:02.754Z,74.15
2018-06-30T01:46:02.705Z,74.24
2018-06-30T01:47:02.661Z,74.11
2018-06-30T01:48:02.614Z,74.43
2018-06-30T01:49:02.606Z,74.01
2018-06-30T01:50:02.556Z,74.77
2018-06-30T01:51:02.481Z,75.45
2018-06-30T01:52:02.467Z,75.07
2018-06-30T01:53:02.390Z,74.87
2018-06-30T01:54:02.344Z,76.69
2018-06-30T01:55:02.298Z,76.02
2018-06-30T01:56:02.259Z,77.33
2018-06-30T01:57:02.239Z,76.56
2018-06-30T01:58:02.217Z,75.98
2018-06-30T01:59:02.117Z,77.33
2018-06-30T02:00:02.072Z,78.38
2018-06-30T02:01:02.027Z,77.80
2018-06-30T02:02:01.981Z,78.57
2018-06-30T02:03:01.972Z,78.19
2018-06-30T02:04:01.890Z,77.70
2018-06-30T02:05:01.848Z,77.61
2018-06-30T02:06:01.805Z,78.19
2018-06-30T02:07:01.756Z,78.86
2018-06-30T02:08:01.742Z,77.99
2018-06-30T02:09:01.664Z,77.61
2018-06-30T02:10:01.620Z,77.23
2018-06-30T02:11:01.573Z,76.94
2018-06-30T02:12:01.527Z,77.33
2018-06-30T02:13:01.520Z,76.89
2018-06-30T02:14:01.437Z,77.04
2018-06-30T02:15:01.391Z,77.33
2018-06-30T02:16:01.351Z,77.04
2018-06-30T02:17:01.301Z,76.27
2018-06-30T02:18:01.287Z,77.23
2018-06-30T02:19:01.209Z,76.46
2018-06-30T02:20:01.167Z,77.42
2018-06-30T02:21:01.121Z,77.33
2018-06-30T02:22:01.103Z,76.94
2018-06-30T02:23:01.025Z,76.94
2018-06-30T02:24:00.983Z,76.65
2018-06-30T02:25:00.936Z,77.13
2018-06-30T02:26:00.890Z,77.23
2018-06-30T02:27:00.875Z,77.51
2018-06-30T02:28:00.801Z,77.61
2018-06-30T02:29:00.753Z,78.09
2018-06-30T02:30:00.706Z,77.04
2018-06-30T02:31:00.663Z,76.94
2018-06-30T02:32:00.663Z,77.42
2018-06-30T02:33:00.571Z,77.51
2018-06-30T02:34:00.521Z,78.09
2018-06-30T02:35:00.480Z,79.49
2018-06-30T02:36:00.433Z,80.06
2018-06-30T02:37:00.423Z,79.87
2018-06-30T02:38:00.340Z,80.25
2018-06-30T02:39:00.309Z,80.63
2018-06-30T02:40:00.281Z,80.25
2018-06-30T02:41:00.218Z,79.77
2018-06-30T02:42:00.158Z,79.87
2018-06-30T02:43:00.112Z,80.16
2018-06-30T02:44:00.069Z,79.77
2018-06-30T02:45:00.065Z,79.39
2018-06-30T02:46:00.024Z,79.14
2018-06-30T02:46:59.961Z,79.14
2018-06-30T02:47:59.892Z,79.43
2018-06-30T02:48:59.876Z,79.24
2018-06-30T02:49:59.789Z,78.95
2018-06-30T02:50:59.743Z,78.86
2018-06-30T02:51:59.699Z,78.57
2018-06-30T02:52:59.658Z,79.14
2018-06-30T02:53:59.636Z,79.24
2018-06-30T02:54:59.573Z,79.05
2018-06-30T02:55:59.514Z,78.95
2018-06-30T02:56:59.473Z,79.52
2018-06-30T02:57:59.426Z,79.24
2018-06-30T02:58:59.400Z,79.43
2018-06-30T02:59:59.364Z,79.20
2018-06-30T03:00:59.289Z,79.58
2018-06-30T03:01:59.238Z,79.39
2018-06-30T03:02:59.194Z,78.81
2018-06-30T03:03:59.145Z,78.91
2018-06-30T03:04:59.133Z,79.10
2018-06-30T03:05:59.055Z,79.58
2018-06-30T03:06:59.007Z,79.87
2018-06-30T03:07:58.962Z,79.58
2018-06-30T03:08:58.918Z,80.06
2018-06-30T03:09:58.905Z,79.49
2018-06-30T03:10:58.868Z,79.49
2018-06-30T03:11:58.779Z,79.58
2018-06-30T03:12:58.748Z,79.68
2018-06-30T03:13:58.688Z,79.87
2018-06-30T03:14:58.644Z,79.87
2018-06-30T03:15:58.640Z,79.77
2018-06-30T03:16:58.548Z,79.58
2018-06-30T03:17:58.508Z,79.49
2018-06-30T03:18:58.458Z,80.82
2018-06-30T03:19:58.413Z,81.21
2018-06-30T03:20:58.401Z,81.30
2018-06-30T03:21:58.319Z,82.03
2018-06-30T03:22:58.307Z,82.31
2018-06-30T03:23:58.227Z,82.12
2018-06-30T03:24:58.179Z,83.17
2018-06-30T03:25:58.135Z,82.70
2018-06-30T03:26:58.089Z,82.12
2018-06-30T03:27:58.073Z,81.78
2018-06-30T03:28:57.997Z,82.12
2018-06-30T03:29:57.950Z,81.93
2018-06-30T03:30:57.903Z,81.65
2018-06-30T03:31:57.892Z,81.49
2018-06-30T03:32:57.813Z,81.36
2018-06-30T03:33:57.764Z,81.36
2018-06-30T03:34:57.753Z,82.03
2018-06-30T03:35:57.673Z,81.36
2018-06-30T03:36:57.628Z,82.03
2018-06-30T03:37:57.580Z,82.51
2018-06-30T03:38:57.534Z,81.74
2018-06-30T03:39:57.517Z,81.65
2018-06-30T03:40:57.491Z,82.12
2018-06-30T03:41:57.394Z,82.22
2018-06-30T03:42:57.347Z,82.51
2018-06-30T03:43:57.300Z,82.79
2018-06-30T03:44:57.254Z,82.70
2018-06-30T03:45:57.237Z,82.51
2018-06-30T03:46:57.160Z,82.60
2018-06-30T03:47:57.160Z,82.51
2018-06-30T03:48:57.072Z,82.41
2018-06-30T03:49:57.024Z,82.22
2018-06-30T03:50:56.976Z,81.65
2018-06-30T03:51:56.928Z,81.65
2018-06-30T03:52:56.925Z,82.51
2018-06-30T03:53:56.837Z,82.41
2018-06-30T03:54:56.789Z,82.12
2018-06-30T03:55:56.742Z,82.17
2018-06-30T03:56:56.696Z,82.93
2018-06-30T03:57:56.683Z,82.45
2018-06-30T03:58:56.605Z,82.54
2018-06-30T03:59:56.558Z,82.54
2018-06-30T04:00:56.508Z,82.35
2018-06-30T04:01:56.506Z,82.54
2018-06-30T04:02:56.417Z,82.54
2018-06-30T04:03:56.372Z,81.88
2018-06-30T04:04:56.324Z,82.74
2018-06-30T04:05:56.276Z,82.74
2018-06-30T04:06:56.262Z,82.54
2018-06-30T04:07:56.188Z,82.54
2018-06-30T04:08:56.140Z,82.74
2018-06-30T04:09:56.093Z,82.17
2018-06-30T04:10:56.050Z,82.07
2018-06-30T04:11:56.042Z,82.74
2018-06-30T04:12:55.954Z,82.83
2018-06-30T04:13:55.905Z,83.22
2018-06-30T04:14:55.858Z,82.74
2018-06-30T04:15:55.816Z,82.74
2018-06-30T04:16:55.819Z,82.74
2018-06-30T04:17:55.718Z,83.03
2018-06-30T04:18:55.677Z,83.60
2018-06-30T04:19:55.625Z,82.74
2018-06-30T04:20:55.582Z,82.45
2018-06-30T04:21:55.576Z,82.54
2018-06-30T04:22:55.488Z,82.26
2018-06-30T04:23:55.441Z,82.64
2018-06-30T04:24:55.399Z,82.74
2018-06-30T04:25:55.350Z,82.74
2018-06-30T04:26:55.350Z,83.22
2018-06-30T04:27:55.257Z,82.74
2018-06-30T04:28:55.210Z,82.74
2018-06-30T04:29:55.164Z,82.64
2018-06-30T04:30:55.116Z,82.97
2018-06-30T04:31:55.102Z,83.03
2018-06-30T04:32:55.025Z,83.22
2018-06-30T04:33:54.978Z,83.50
2018-06-30T04:34:54.958Z,83.22
2018-06-30T04:35:54.885Z,83.69
2018-06-30T04:36:54.845Z,83.60
2018-06-30T04:37:54.796Z,83.40
2018-06-30T04:38:54.744Z,83.12
2018-06-30T04:39:54.736Z,83.16
2018-06-30T04:40:54.662Z,83.31
2018-06-30T04:41:54.642Z,83.16
2018-06-30T04:42:54.560Z,83.16
2018-06-30T04:43:54.522Z,83.73
2018-06-30T04:44:54.501Z,82.97
2018-06-30T04:45:54.422Z,83.26
2018-06-30T04:46:54.377Z,83.26
2018-06-30T04:47:54.333Z,83.16
2018-06-30T04:48:54.287Z,83.73
2018-06-30T04:49:54.262Z,83.16
2018-06-30T04:50:54.244Z,82.97
2018-06-30T04:51:54.147Z,83.16
2018-06-30T04:52:54.100Z,82.87
2018-06-30T04:53:54.053Z,83.83
2018-06-30T04:54:54.040Z,82.97
2018-06-30T04:55:53.963Z,83.16
2018-06-30T04:56:53.915Z,83.16
2018-06-30T04:57:53.869Z,82.97
2018-06-30T04:58:53.822Z,83.16
2018-06-30T04:59:53.806Z,83.36
2018-06-30T05:00:53.729Z,83.11
2018-06-30T05:01:53.682Z,83.59
2018-06-30T05:02:53.640Z,83.49
2018-06-30T05:03:53.629Z,83.49
2018-06-30T05:04:53.551Z,83.01
2018-06-30T05:05:53.497Z,83.39
2018-06-30T05:06:53.452Z,83.49
2018-06-30T05:07:53.406Z,83.59
2018-06-30T05:08:53.391Z,83.49
2018-06-30T05:09:53.313Z,83.59
2018-06-30T05:10:53.268Z,84.26
2018-06-30T05:11:53.223Z,84.26
2018-06-30T05:12:53.190Z,84.16
2018-06-30T05:13:53.162Z,84.16
2018-06-30T05:14:53.082Z,83.78
2018-06-30T05:15:53.042Z,84.26
2018-06-30T05:16:52.992Z,84.45
2018-06-30T05:17:52.986Z,84.26
2018-06-30T05:18:52.898Z,84.26
2018-06-30T05:19:52.855Z,84.26
2018-06-30T05:20:52.806Z,83.87
2018-06-30T05:21:52.765Z,84.11
2018-06-30T05:22:52.751Z,84.45
2018-06-30T05:23:52.672Z,84.20
2018-06-30T05:24:52.624Z,84.26
2018-06-30T05:25:52.642Z,83.97
2018-06-30T05:26:52.529Z,84.06
2018-06-30T05:27:52.514Z,84.01
2018-06-30T05:28:52.442Z,84.20
2018-06-30T05:29:52.426Z,84.39
2018-06-30T05:30:52.348Z,83.82
2018-06-30T05:31:52.303Z,84.30
2018-06-30T05:32:52.256Z,83.82
2018-06-30T05:33:52.209Z,83.92
2018-06-30T05:34:52.206Z,83.92
2018-06-30T05:35:52.121Z,84.30
2018-06-30T05:36:52.075Z,84.20
2018-06-30T05:37:52.027Z,83.92
2018-06-30T05:38:51.982Z,83.82
2018-06-30T05:39:51.969Z,83.92
2018-06-30T05:40:51.892Z,83.72
2018-06-30T05:41:51.843Z,84.30
2018-06-30T05:42:51.831Z,83.92
2018-06-30T05:43:51.756Z,83.58
2018-06-30T05:44:51.708Z,83.67
2018-06-30T05:45:51.692Z,83.58
2018-06-30T05:46:51.616Z,83.19
2018-06-30T05:47:51.572Z,83.29
2018-06-30T05:48:51.526Z,83.86
2018-06-30T05:49:51.480Z,83.29
2018-06-30T05:50:51.482Z,83.19
2018-06-30T05:51:51.389Z,83.09
2018-06-30T05:52:51.346Z,83.09
2018-06-30T05:53:51.298Z,83.48
2018-06-30T05:54:51.282Z,83.58
2018-06-30T05:55:51.212Z,83.48
2018-06-30T05:56:51.194Z,83.58
2018-06-30T05:57:51.126Z,83.00
2018-06-30T05:58:51.073Z,83.61
2018-06-30T05:59:51.060Z,82.71
2018-06-30T06:00:50.986Z,83.71
2018-06-30T06:01:50.987Z,83.52
2018-06-30T06:02:50.891Z,83.67
2018-06-30T06:03:50.844Z,83.52
2018-06-30T06:04:50.797Z,83.14
2018-06-30T06:05:50.759Z,82.94
2018-06-30T06:06:50.747Z,83.33
2018-06-30T06:07:50.662Z,83.23
2018-06-30T06:08:50.644Z,83.42
2018-06-30T06:09:50.667Z,83.04
2018-06-30T06:10:50.539Z,83.61
2018-06-30T06:11:50.512Z,83.61
2018-06-30T06:12:50.438Z,83.23
2018-06-30T06:13:50.452Z,83.23
2018-06-30T06:14:50.344Z,83.14
2018-06-30T06:15:50.300Z,83.61
2018-06-30T06:16:50.254Z,82.94
2018-06-30T06:17:50.213Z,82.85
2018-06-30T06:18:50.203Z,82.85
2018-06-30T06:19:50.121Z,82.85
2018-06-30T06:20:50.076Z,83.23
2018-06-30T06:21:50.028Z,82.56
2018-06-30T06:22:50.030Z,82.51
2018-06-30T06:23:49.973Z,82.51
2018-06-30T06:24:49.893Z,83.47
2018-06-30T06:25:49.861Z,83.18
2018-06-30T06:26:49.800Z,82.79
2018-06-30T06:27:49.810Z,82.60
2018-06-30T06:28:49.753Z,82.79
2018-06-30T06:29:49.712Z,83.08
2018-06-30T06:30:49.653Z,82.70
2018-06-30T06:31:49.577Z,82.60
2018-06-30T06:32:49.604Z,82.79
2018-06-30T06:33:49.529Z,82.70
2018-06-30T06:34:49.444Z,82.70
2018-06-30T06:35:49.402Z,82.74
2018-06-30T06:36:49.356Z,82.16
2018-06-30T06:37:49.309Z,82.45
2018-06-30T06:38:49.301Z,82.45
2018-06-30T06:39:49.222Z,82.45
2018-06-30T06:40:49.176Z,82.16
2018-06-30T06:41:49.135Z,82.35
2018-06-30T06:42:49.118Z,82.35
2018-06-30T06:43:49.047Z,81.68
2018-06-30T06:44:49.002Z,81.68
2018-06-30T06:45:48.982Z,81.49
2018-06-30T06:46:48.908Z,81.49
2018-06-30T06:47:48.862Z,81.53
2018-06-30T06:48:48.819Z,81.05
2018-06-30T06:49:48.773Z,81.24
2018-06-30T06:50:48.760Z,81.34
2018-06-30T06:51:48.716Z,81.24
2018-06-30T06:52:48.656Z,81.53
2018-06-30T06:53:48.599Z,81.63
2018-06-30T06:54:48.556Z,81.05
2018-06-30T06:55:48.514Z,80.57
2018-06-30T06:56:48.494Z,80.66
2018-06-30T06:57:48.418Z,80.99
2018-06-30T06:58:48.408Z,80.80
2018-06-30T06:59:48.349Z,80.71
2018-06-30T07:00:48.285Z,80.57
2018-06-30T07:01:48.249Z,79.84
2018-06-30T07:02:48.196Z,80.42
2018-06-30T07:03:48.188Z,80.13
2018-06-30T07:04:48.111Z,80.22
2018-06-30T07:05:48.098Z,80.32
2018-06-30T07:06:48.021Z,80.32
2018-06-30T07:07:47.975Z,80.13
2018-06-30T07:08:47.939Z,79.94
2018-06-30T07:09:47.891Z,79.27
2018-06-30T07:10:47.877Z,78.88
2018-06-30T07:11:47.803Z,78.92
2018-06-30T07:12:47.758Z,79.50
2018-06-30T07:13:47.711Z,79.30
2018-06-30T07:14:47.702Z,79.69
2018-06-30T07:15:47.625Z,78.53
2018-06-30T07:16:47.629Z,78.44
2018-06-30T07:17:47.535Z,78.25
2018-06-30T07:18:47.495Z,78.53
2018-06-30T07:19:47.451Z,77.96
2018-06-30T07:20:47.406Z,77.86
2018-06-30T07:21:47.399Z,77.29
2018-06-30T07:22:47.319Z,77.67
2018-06-30T07:23:47.310Z,78.09
2018-06-30T07:24:47.232Z,77.76
2018-06-30T07:25:47.184Z,77.51
2018-06-30T07:26:47.180Z,77.42
2018-06-30T07:27:47.140Z,77.04
2018-06-30T07:28:47.058Z,76.94
2018-06-30T07:29:47.015Z,77.13
2018-06-30T07:30:46.982Z,76.65
2018-06-30T07:31:46.923Z,76.84
2018-06-30T07:32:46.913Z,76.26
2018-06-30T07:33:46.833Z,76.36
2018-06-30T07:34:46.794Z,75.88
2018-06-30T07:35:46.748Z,76.26
2018-06-30T07:36:46.705Z,75.40
2018-06-30T07:37:46.698Z,75.59
2018-06-30T07:38:46.619Z,76.26
2018-06-30T07:39:46.579Z,76.31
2018-06-30T07:40:46.532Z,76.11
2018-06-30T07:41:46.489Z,75.24
2018-06-30T07:42:46.478Z,75.44
2018-06-30T07:43:46.404Z,75.24
2018-06-30T07:44:46.363Z,75.34
2018-06-30T07:45:46.315Z,75.34
2018-06-30T07:46:46.322Z,75.15
2018-06-30T07:47:46.233Z,75.54
2018-06-30T07:48:46.191Z,74.67
2018-06-30T07:49:46.146Z,74.96
2018-06-30T07:50:46.100Z,73.61
2018-06-30T07:51:46.098Z,73.32
2018-06-30T07:52:46.021Z,73.42
2018-06-30T07:53:45.971Z,72.88
2018-06-30T07:54:45.930Z,72.30
2018-06-30T07:55:45.888Z,72.11
2018-06-30T07:56:45.873Z,71.43
2018-06-30T07:57:45.797Z,71.24
2018-06-30T07:58:45.754Z,70.66
2018-06-30T07:59:45.714Z,69.54
2018-06-30T08:00:45.703Z,69.64
2018-06-30T08:01:45.625Z,69.25
2018-06-30T08:02:45.599Z,69.25
2018-06-30T08:03:45.542Z,68.68
2018-06-30T08:04:45.497Z,68.19
2018-06-30T08:05:45.484Z,66.94
2018-06-30T08:06:45.415Z,65.98
2018-06-30T08:07:45.366Z,65.01
2018-06-30T08:08:45.332Z,65.59
2018-06-30T08:09:45.322Z,66.36
2018-06-30T08:10:45.285Z,65.59
2018-06-30T08:11:45.196Z,66.27
2018-06-30T08:12:45.159Z,66.36
2018-06-30T08:13:45.144Z,64.76
2018-06-30T08:14:45.070Z,64.86
2018-06-30T08:15:45.070Z,63.79
2018-06-30T08:16:44.985Z,64.28
2018-06-30T08:17:44.942Z,63.70
2018-06-30T08:18:44.899Z,62.63
2018-06-30T08:19:44.861Z,62.35
2018-06-30T08:20:44.845Z,61.87
2018-06-30T08:21:44.775Z,61.29
2018-06-30T08:22:44.731Z,61.68
2018-06-30T08:23:44.688Z,62.73
2018-06-30T08:24:44.647Z,63.12
2018-06-30T08:25:44.635Z,61.80
2018-06-30T08:26:44.607Z,60.55
2018-06-30T08:27:44.524Z,60.64
2018-06-30T08:28:44.478Z,60.35
2018-06-30T08:29:44.432Z,60.64
2018-06-30T08:30:44.399Z,60.26
2018-06-30T08:31:44.392Z,60.26
2018-06-30T08:32:44.314Z,59.68
2018-06-30T08:33:44.265Z,60.55
2018-06-30T08:34:44.223Z,60.35
2018-06-30T08:35:44.182Z,60.74
2018-06-30T08:36:44.172Z,59.39
2018-06-30T08:37:44.136Z,59.58
2018-06-30T08:38:44.055Z,59.13
2018-06-30T08:39:44.015Z,59.03
2018-06-30T08:40:43.973Z,60.10
2018-06-30T08:41:43.928Z,59.74
2018-06-30T08:42:43.918Z,59.55
2018-06-30T08:43:43.846Z,59.00
2018-06-30T08:44:43.807Z,57.74
2018-06-30T08:45:43.761Z,57.19
2018-06-30T08:46:43.718Z,55.65
2018-06-30T08:47:43.721Z,56.51
2018-06-30T08:48:43.640Z,56.32
2018-06-30T08:49:43.594Z,56.35
2018-06-30T08:50:43.556Z,55.19
2018-06-30T08:51:43.514Z,54.25
2018-06-30T08:52:43.512Z,54.05
2018-06-30T08:53:43.430Z,53.69
2018-06-30T08:54:43.396Z,53.59
2018-06-30T08:55:43.428Z,52.36
2018-06-30T08:56:43.308Z,52.85
2018-06-30T08:57:43.309Z,51.72
2018-06-30T08:58:43.223Z,51.32
2018-06-30T08:59:43.182Z,51.04
2018-06-30T09:00:43.170Z,49.51
2018-06-30T09:01:43.106Z,49.61
2018-06-30T09:02:43.093Z,48.74
2018-06-30T09:03:43.076Z,48.83
2018-06-30T09:04:42.978Z,49.41
2018-06-30T09:05:42.938Z,50.77
2018-06-30T09:06:42.931Z,49.44
2018-06-30T09:07:42.858Z,48.85
2018-06-30T09:08:42.856Z,48.20
2018-06-30T09:09:42.777Z,47.91
2018-06-30T09:10:42.767Z,47.25
2018-06-30T09:11:42.698Z,47.55
2018-06-30T09:12:42.660Z,47.66
2018-06-30T09:13:42.653Z,47.86
2018-06-30T09:14:42.587Z,47.08
2018-06-30T09:15:42.541Z,45.94
2018-06-30T09:16:42.502Z,46.04
2018-06-30T09:17:42.459Z,45.17
2018-06-30T09:18:42.451Z,44.78
2018-06-30T09:19:42.387Z,44.07
2018-06-30T09:20:42.376Z,45.92
2018-06-30T09:21:42.307Z,46.04
2018-06-30T09:22:42.287Z,45.97
2018-06-30T09:23:42.228Z,45.48
2018-06-30T09:24:42.184Z,44.21
2018-06-30T09:25:42.193Z,43.54
2018-06-30T09:26:42.107Z,43.46
2018-06-30T09:27:42.074Z,43.07
2018-06-30T09:28:42.031Z,43.44
2018-06-30T09:29:42.043Z,43.44
2018-06-30T09:30:41.990Z,43.46
2018-06-30T09:31:41.911Z,43.26
2018-06-30T09:32:41.872Z,42.87
2018-06-30T09:33:41.833Z,42.31
2018-06-30T09:34:41.794Z,42.21
2018-06-30T09:35:41.791Z,40.97
2018-06-30T09:36:41.720Z,41.26
2018-06-30T09:37:41.712Z,40.48
2018-06-30T09:38:41.642Z,40.21
2018-06-30T09:39:41.603Z,39.82
2018-06-30T09:40:41.596Z,39.34
2018-06-30T09:41:41.527Z,38.46
2018-06-30T09:42:41.492Z,38.65
2018-06-30T09:43:41.449Z,38.95
2018-06-30T09:44:41.498Z,38.36
2018-06-30T09:45:41.373Z,38.75
2018-06-30T09:46:41.331Z,39.53
2018-06-30T09:47:41.337Z,39.24
2018-06-30T09:48:41.258Z,38.46
2018-06-30T09:49:41.218Z,37.41
2018-06-30T09:50:41.186Z,37.87
2018-06-30T09:51:41.147Z,37.70
2018-06-30T09:52:41.142Z,36.92
2018-06-30T09:53:41.070Z,36.24
2018-06-30T09:54:41.071Z,36.33
2018-06-30T09:55:40.994Z,36.16
2018-06-30T09:56:40.980Z,34.99
2018-06-30T09:57:40.940Z,35.67
2018-06-30T09:58:40.880Z,35.96
2018-06-30T09:59:40.844Z,35.08
2018-06-30T10:00:40.804Z,35.28
2018-06-30T10:01:40.767Z,35.38
2018-06-30T10:02:40.761Z,35.30
2018-06-30T10:03:40.698Z,34.79
2018-06-30T10:04:40.675Z,34.31
2018-06-30T10:05:40.618Z,34.88
2018-06-30T10:06:40.581Z,34.86
2018-06-30T10:07:40.577Z,35.83
2018-06-30T10:08:40.508Z,36.41
2018-06-30T10:09:40.469Z,35.75
2018-06-30T10:10:40.432Z,34.89
2018-06-30T10:11:40.395Z,33.92
2018-06-30T10:12:40.408Z,34.79
2018-06-30T10:13:40.321Z,34.40
2018-06-30T10:14:40.282Z,34.40
2018-06-30T10:15:40.249Z,34.17
2018-06-30T10:16:40.208Z,35.53
2018-06-30T10:17:40.302Z,35.63
2018-06-30T10:18:40.135Z,35.73
2018-06-30T10:19:40.134Z,35.05
2018-06-30T10:20:40.062Z,35.55
2018-06-30T10:21:40.026Z,35.46
2018-06-30T10:22:39.985Z,35.57
2018-06-30T10:23:39.951Z,34.89
2018-06-30T10:24:39.949Z,34.42
2018-06-30T10:25:39.874Z,34.44
2018-06-30T10:26:39.839Z,34.24
2018-06-30T10:27:39.809Z,34.24
2018-06-30T10:28:39.766Z,34.73
2018-06-30T10:29:39.758Z,33.26
2018-06-30T10:30:39.692Z,34.05
2018-06-30T10:31:39.654Z,34.53
2018-06-30T10:32:39.619Z,32.68
2018-06-30T10:33:39.613Z,32.40
2018-06-30T10:34:39.585Z,31.82
2018-06-30T10:35:39.509Z,32.89
2018-06-30T10:36:39.472Z,32.99
2018-06-30T10:37:39.434Z,34.75
2018-06-30T10:38:39.396Z,33.28
2018-06-30T10:39:39.396Z,34.16
2018-06-30T10:40:39.324Z,34.57
2018-06-30T10:41:39.288Z,34.18
2018-06-30T10:42:39.252Z,34.18
2018-06-30T10:43:39.217Z,34.96
2018-06-30T10:44:39.221Z,34.38
2018-06-30T10:45:39.155Z,33.69
2018-06-30T10:46:39.106Z,34.38
2018-06-30T10:47:39.069Z,34.19
2018-06-30T10:48:39.035Z,33.80
2018-06-30T10:49:39.039Z,33.80
2018-06-30T10:50:38.992Z,33.69
2018-06-30T10:51:38.923Z,33.61
2018-06-30T10:52:38.890Z,33.11
2018-06-30T10:53:38.882Z,33.01
2018-06-30T10:54:38.815Z,33.41
2018-06-30T10:55:38.812Z,33.89
2018-06-30T10:56:38.743Z,33.59
2018-06-30T10:57:38.705Z,33.11
2018-06-30T10:58:38.674Z,32.81
2018-06-30T10:59:38.634Z,31.74
2018-06-30T11:00:38.650Z,32.91
2018-06-30T11:01:38.562Z,33.30
2018-06-30T11:02:38.527Z,32.43
2018-06-30T11:03:38.500Z,31.75
2018-06-30T11:04:38.456Z,32.04
2018-06-30T11:05:38.951Z,32.53
2018-06-30T11:06:38.385Z,32.34
2018-06-30T11:07:38.345Z,31.85
2018-06-30T11:08:38.312Z,31.56
2018-06-30T11:09:38.315Z,31.87
2018-06-30T11:10:38.242Z,29.99
2018-06-30T11:11:38.200Z,29.80
2018-06-30T11:12:38.198Z,29.80
2018-06-30T11:13:38.129Z,30.19
2018-06-30T11:14:38.135Z,29.80
2018-06-30T11:15:38.057Z,30.09
2018-06-30T11:16:38.022Z,30.09
2018-06-30T11:17:38.037Z,29.79
2018-06-30T11:18:37.964Z,29.49
2018-06-30T11:19:37.966Z,30.57
2018-06-30T11:20:37.879Z,29.49
2018-06-30T11:21:37.848Z,29.99
2018-06-30T11:22:37.806Z,29.80
2018-06-30T11:23:37.775Z,28.82
2018-06-30T11:24:37.770Z,28.63
2018-06-30T11:25:37.704Z,28.63
2018-06-30T11:26:37.664Z,28.05
2018-06-30T11:27:37.628Z,27.95
2018-06-30T11:28:37.632Z,28.34
2018-06-30T11:29:37.556Z,28.83
2018-06-30T11:30:37.519Z,28.25
2018-06-30T11:31:37.483Z,27.66
2018-06-30T11:32:37.484Z,27.95
2018-06-30T11:33:37.455Z,26.38
2018-06-30T11:34:37.383Z,27.44
2018-06-30T11:35:37.340Z,29.38
2018-06-30T11:36:37.306Z,29.79
2018-06-30T11:37:37.272Z,28.42
2018-06-30T11:38:37.267Z,29.49
2018-06-30T11:39:37.200Z,28.22
2018-06-30T11:40:37.176Z,27.64
2018-06-30T11:41:37.129Z,28.04
2018-06-30T11:42:37.093Z,28.33
2018-06-30T11:43:37.091Z,28.43
2018-06-30T11:44:37.023Z,27.56
2018-06-30T11:45:36.988Z,27.37
2018-06-30T11:46:36.952Z,27.66
2018-06-30T11:47:36.912Z,26.99
2018-06-30T11:48:36.911Z,26.79
2018-06-30T11:49:36.840Z,26.01
2018-06-30T11:50:36.805Z,26.00
2018-06-30T11:51:36.770Z,26.40
2018-06-30T11:52:36.737Z,26.39
2018-06-30T11:53:36.730Z,26.01
2018-06-30T11:54:36.663Z,25.04
2018-06-30T11:55:36.629Z,25.24
2018-06-30T11:56:36.592Z,26.03
2018-06-30T11:57:36.597Z,24.55
2018-06-30T11:58:36.576Z,25.73
2018-06-30T11:59:36.492Z,25.93
2018-06-30T12:00:36.464Z,26.71
2018-06-30T12:01:36.437Z,25.93
2018-06-30T12:02:36.380Z,26.32
2018-06-30T12:03:36.464Z,26.03
2018-06-30T12:04:36.312Z,26.03
2018-06-30T12:05:36.879Z,25.54
2018-06-30T12:06:36.259Z,25.05
2018-06-30T12:07:36.203Z,25.34
2018-06-30T12:08:36.208Z,25.24
2018-06-30T12:09:36.146Z,25.15
2018-06-30T12:10:36.098Z,25.15
2018-06-30T12:11:36.063Z,24.33
2018-06-30T12:12:36.027Z,24.71
2018-06-30T12:13:36.041Z,25.99
2018-06-30T12:14:35.954Z,26.38
2018-06-30T12:15:35.921Z,27.06
2018-06-30T12:16:35.888Z,26.68
2018-06-30T12:17:35.849Z,25.71
2018-06-30T12:18:35.857Z,25.12
2018-06-30T12:19:35.783Z,24.74
2018-06-30T12:20:35.744Z,25.33
2018-06-30T12:21:35.712Z,24.74
2018-06-30T12:22:35.671Z,24.54
2018-06-30T12:23:35.673Z,24.36
2018-06-30T12:24:35.605Z,23.77
2018-06-30T12:25:35.598Z,25.24
2018-06-30T12:26:35.532Z,24.75
2018-06-30T12:27:35.498Z,24.55
2018-06-30T12:28:35.463Z,25.05
2018-06-30T12:29:35.430Z,24.36
2018-06-30T12:30:35.433Z,24.46
2018-06-30T12:31:35.357Z,24.36
2018-06-30T12:32:35.323Z,23.97
2018-06-30T12:33:35.287Z,24.36
2018-06-30T12:34:35.258Z,23.87
2018-06-30T12:35:35.260Z,23.48
2018-06-30T12:36:35.181Z,24.08
2018-06-30T12:37:35.148Z,23.49
2018-06-30T12:38:35.118Z,23.48
2018-06-30T12:39:35.078Z,24.18
2018-06-30T12:40:35.074Z,23.39
2018-06-30T12:41:35.035Z,23.39
2018-06-30T12:42:34.969Z,23.68
2018-06-30T12:43:34.938Z,22.60
2018-06-30T12:44:34.900Z,22.50
2018-06-30T12:45:34.868Z,22.31
2018-06-30T12:46:34.861Z,21.41
2018-06-30T12:47:34.796Z,21.89
2018-06-30T12:48:34.821Z,21.39
2018-06-30T12:49:34.723Z,22.74
2018-06-30T12:50:34.722Z,23.44
2018-06-30T12:51:34.653Z,23.24